createdAt,value
2023-01-28T08:14:30.418Z,6.80
2023-01-28T08:17:07.289Z,10.97
2023-01-28T08:19:43.727Z,8.53
2023-01-28T08:22:20.611Z,8.77
2023-01-28T08:24:57.164Z,7.63
2023-01-28T08:27:34.076Z,10.30
2023-01-28T08:30:15.009Z,7.43
2023-01-28T08:32:52.053Z,6.30
2023-01-28T08:35:28.753Z,7.27
2023-01-28T08:38:06.878Z,9.60
2023-01-28T08:40:43.277Z,10.87
2023-01-28T08:43:20.152Z,34.20
2023-01-28T08:45:59.363Z,15.57
2023-01-28T08:48:36.274Z,7.87
2023-01-28T08:51:12.697Z,8.33
2023-01-28T08:53:49.485Z,8.63
2023-01-28T08:56:25.806Z,7.60
2023-01-28T08:59:02.548Z,9.30
2023-01-28T09:01:41.731Z,6.67
2023-01-28T09:04:18.476Z,8.13
2023-01-28T09:06:55.117Z,9.40
2023-01-28T09:09:34.004Z,8.53
2023-01-28T09:12:11.451Z,8.60
2023-01-28T09:14:48.204Z,7.50
2023-01-28T09:17:28.663Z,9.20
2023-01-28T09:20:06.016Z,9.50
2023-01-28T09:22:43.288Z,10.20
2023-01-28T09:25:20.325Z,11.07
2023-01-28T09:27:57.436Z,12.50
2023-01-28T09:30:37.032Z,11.53
2023-01-28T09:33:17.164Z,10.57
2023-01-28T09:35:54.924Z,9.43
2023-01-28T09:38:32.583Z,10.40
2023-01-28T09:41:25.633Z,9.57
2023-01-28T09:44:10.736Z,8.87
2023-01-28T09:46:48.857Z,15.43
2023-01-28T09:49:34.152Z,8.53
2023-01-28T09:52:17.053Z,11.97
2023-01-28T09:54:55.772Z,25.33
2023-01-28T09:57:40.795Z,68.93
2023-01-28T10:00:20.662Z,31.63
2023-01-28T10:03:12.035Z,21.97
2023-01-28T10:05:59.512Z,35.33
2023-01-28T10:09:00.159Z,26.97
2023-01-28T10:11:51.412Z,14.87
2023-01-28T10:14:36.263Z,14.77
2023-01-28T10:17:20.181Z,14.07
2023-01-28T10:20:04.087Z,18.67
2023-01-28T10:22:48.348Z,28.42
2023-01-28T10:25:27.405Z,13.67
2023-01-28T10:28:05.429Z,19.97
2023-01-28T10:30:43.330Z,12.27
2023-01-28T10:33:23.744Z,9.97
2023-01-28T10:36:01.036Z,10.17
2023-01-28T10:38:43.382Z,7.90
2023-01-28T10:41:26.643Z,13.03
2023-01-28T10:44:03.059Z,12.38
2023-01-28T10:46:41.615Z,16.10
2023-01-28T10:49:20.524Z,11.13
2023-01-28T10:51:58.962Z,5.77
2023-01-28T10:54:38.080Z,6.67
2023-01-28T10:57:16.903Z,5.27
2023-01-28T10:59:53.434Z,5.93
2023-01-28T11:02:36.179Z,5.37
2023-01-28T11:05:21.316Z,5.37
2023-01-28T11:08:09.036Z,5.80
2023-01-28T11:10:48.676Z,5.87
2023-01-28T11:13:26.703Z,8.17
2023-01-28T11:16:05.441Z,7.67
2023-01-28T11:18:44.251Z,8.13
2023-01-28T11:21:22.780Z,7.37
2023-01-28T11:24:02.848Z,7.07
2023-01-28T11:26:43.465Z,8.90
2023-01-28T11:29:27.996Z,10.47
2023-01-28T11:32:05.072Z,7.10
2023-01-28T11:34:52.828Z,9.17
2023-01-28T11:37:30.863Z,7.23
2023-01-28T11:40:22.162Z,9.37
2023-01-28T11:43:01.630Z,7.60
2023-01-28T11:45:45.857Z,19.73
2023-01-28T11:48:31.564Z,10.23
2023-01-28T11:51:11.388Z,7.37
2023-01-28T11:54:02.242Z,7.63
2023-01-28T11:56:55.084Z,8.20
2023-01-28T12:00:03.203Z,6.93
2023-01-28T12:02:54.677Z,9.37
2023-01-28T12:05:47.370Z,10.37
2023-01-28T12:08:26.452Z,8.87
2023-01-28T12:11:18.817Z,10.30
2023-01-28T12:14:07.350Z,14.07
2023-01-28T12:16:58.642Z,10.27
2023-01-28T12:19:49.970Z,11.73
2023-01-28T12:22:57.063Z,13.77
2023-01-28T12:25:46.595Z,13.37
2023-01-28T12:28:32.339Z,12.43
2023-01-28T12:31:24.288Z,13.07
2023-01-28T12:34:29.286Z,12.13
2023-01-28T12:37:09.199Z,12.37
2023-01-28T12:39:55.578Z,10.90
2023-01-28T12:42:38.677Z,11.47
2023-01-28T12:45:20.462Z,10.87
2023-01-28T12:48:01.998Z,13.00
2023-01-28T12:50:45.660Z,12.17
2023-01-28T12:53:30.113Z,12.13
2023-01-28T12:56:17.293Z,14.97
2023-01-28T12:59:01.124Z,10.53
2023-01-28T13:01:46.201Z,10.83
2023-01-28T13:04:33.309Z,10.50
2023-01-28T13:07:19.665Z,9.67
2023-01-28T13:10:06.068Z,9.47
2023-01-28T13:12:46.568Z,19.70
2023-01-28T13:15:24.337Z,17.27
2023-01-28T13:18:02.308Z,13.17
2023-01-28T13:20:53.006Z,31.50
2023-01-28T13:23:43.967Z,18.63
2023-01-28T13:26:41.127Z,13.87
2023-01-28T13:29:33.991Z,13.40
2023-01-28T13:32:31.298Z,15.17
2023-01-28T13:35:10.317Z,14.13
2023-01-28T13:37:48.931Z,12.77
2023-01-28T13:40:30.894Z,11.43
2023-01-28T13:43:09.592Z,15.97
2023-01-28T13:45:46.045Z,14.53
2023-01-28T13:48:30.125Z,12.43
2023-01-28T13:51:07.233Z,13.48
2023-01-28T13:53:47.718Z,14.53
2023-01-28T13:56:32.477Z,15.60
2023-01-28T13:59:31.604Z,23.87
2023-01-28T14:02:33.089Z,16.23
2023-01-28T14:05:39.793Z,15.80
2023-01-28T14:08:38.754Z,21.00
2023-01-28T14:11:39.743Z,22.53
2023-01-28T14:14:33.068Z,14.93
2023-01-28T14:17:16.850Z,14.10
2023-01-28T14:19:54.862Z,16.30
2023-01-28T14:22:31.736Z,16.03
2023-01-28T14:25:17.802Z,17.93
2023-01-28T14:27:57.931Z,21.13
2023-01-28T14:30:42.578Z,37.87
2023-01-28T14:33:19.467Z,22.57
2023-01-28T14:35:59.575Z,16.97
2023-01-28T14:38:48.171Z,15.75
2023-01-28T14:41:31.232Z,16.27
2023-01-28T14:44:12.392Z,14.00
2023-01-28T14:46:54.531Z,16.97
2023-01-28T14:49:40.162Z,16.07
2023-01-28T14:52:30.082Z,16.67
2023-01-28T14:55:21.200Z,13.63
2023-01-28T14:58:00.044Z,16.03
2023-01-28T15:00:48.038Z,17.13
2023-01-28T15:03:33.255Z,16.93
2023-01-28T15:06:25.249Z,16.20
2023-01-28T15:09:17.643Z,17.23
2023-01-28T15:14:50.444Z,20.40
2023-01-28T15:17:32.613Z,21.73
2023-01-28T15:20:12.012Z,19.10
2023-01-28T15:22:53.879Z,13.47
2023-01-28T15:25:37.673Z,13.63
2023-01-28T15:28:23.776Z,17.07
2023-01-28T15:31:03.464Z,14.00
2023-01-28T15:33:45.221Z,16.93
2023-01-28T15:36:24.777Z,13.20
2023-01-28T15:39:07.535Z,13.30
2023-01-28T15:41:49.632Z,11.13
2023-01-28T15:44:32.451Z,14.77
2023-01-28T15:47:25.563Z,15.40
2023-01-28T15:50:16.577Z,13.20
2023-01-28T15:53:04.404Z,10.93
2023-01-28T15:55:45.884Z,12.50
2023-01-28T15:58:24.851Z,15.40
2023-01-28T16:01:20.101Z,15.07
2023-01-28T16:04:07.118Z,14.07
2023-01-28T16:06:47.283Z,12.67
2023-01-28T16:09:29.168Z,22.20
2023-01-28T16:12:07.636Z,14.40
2023-01-28T16:14:47.660Z,18.73
2023-01-28T16:17:28.381Z,20.63
2023-01-28T16:20:07.610Z,19.30
2023-01-28T16:22:47.240Z,15.27
2023-01-28T16:25:31.360Z,15.97
2023-01-28T16:28:17.416Z,19.17
2023-01-28T16:30:54.309Z,21.03
2023-01-28T16:33:32.450Z,21.33
2023-01-28T16:36:13.325Z,16.27
2023-01-28T16:38:53.295Z,22.37
2023-01-28T16:41:32.365Z,18.93
2023-01-28T16:44:09.920Z,19.17
2023-01-28T16:46:47.575Z,19.03
2023-01-28T16:49:25.687Z,15.00
2023-01-28T16:52:03.435Z,20.20
2023-01-28T16:54:48.147Z,16.23
2023-01-28T16:57:25.595Z,14.37
2023-01-28T17:00:02.854Z,14.40
2023-01-28T17:02:40.117Z,12.37
2023-01-28T17:05:20.386Z,17.00
2023-01-28T17:07:59.710Z,17.50
2023-01-28T17:10:39.616Z,14.87
2023-01-28T17:13:16.855Z,19.40
2023-01-28T17:15:54.720Z,17.83
2023-01-28T17:18:32.156Z,17.23
2023-01-28T17:21:10.098Z,18.37
2023-01-28T17:23:48.411Z,23.63
2023-01-28T17:26:29.333Z,23.20
2023-01-28T17:29:08.147Z,19.50
2023-01-28T17:31:46.011Z,16.27
2023-01-28T17:34:24.671Z,16.60
2023-01-28T17:37:02.213Z,16.13
2023-01-28T17:39:40.022Z,20.33
2023-01-28T17:42:20.613Z,21.60
2023-01-28T17:44:59.053Z,18.77
2023-01-28T17:47:39.376Z,18.73
2023-01-28T17:50:17.293Z,30.40
2023-01-28T17:53:00.643Z,33.93
2023-01-28T17:55:41.990Z,35.63
2023-01-28T17:58:25.105Z,31.97
2023-01-28T18:01:05.000Z,22.43
2023-01-28T18:03:44.284Z,25.03
2023-01-28T18:06:23.437Z,23.03
2023-01-28T18:09:01.441Z,21.90
2023-01-28T18:11:40.693Z,20.23
2023-01-28T18:14:21.733Z,19.00
2023-01-28T18:16:59.296Z,21.70
2023-01-28T18:19:38.716Z,28.03
2023-01-28T18:22:16.964Z,20.20
2023-01-28T18:24:54.517Z,19.37
2023-01-28T18:27:34.268Z,20.33
2023-01-28T18:30:17.242Z,18.93
2023-01-28T18:32:54.559Z,19.40
2023-01-28T18:35:32.506Z,20.20
2023-01-28T18:38:09.237Z,22.23
2023-01-28T18:40:48.784Z,24.37
2023-01-28T18:43:29.018Z,23.07
2023-01-28T18:46:15.298Z,22.90
2023-01-28T18:48:58.465Z,20.60
2023-01-28T18:51:42.159Z,17.37
2023-01-28T18:54:21.080Z,22.03
2023-01-28T18:57:02.025Z,20.23
2023-01-28T18:59:42.521Z,19.30
2023-01-28T19:02:27.785Z,19.80
2023-01-28T19:05:06.107Z,15.27
2023-01-28T19:07:45.309Z,19.87
2023-01-28T19:10:24.810Z,19.37
2023-01-28T19:13:07.087Z,18.87
2023-01-28T19:15:46.149Z,17.93
2023-01-28T19:18:27.736Z,21.10
2023-01-28T19:21:12.390Z,17.67
2023-01-28T19:24:00.886Z,20.23
2023-01-28T19:26:42.781Z,20.73
2023-01-28T19:29:22.200Z,19.93
2023-01-28T19:31:59.796Z,15.70
2023-01-28T19:34:41.151Z,15.73
2023-01-28T19:37:19.729Z,16.23
2023-01-28T19:39:59.462Z,16.80
2023-01-28T19:42:36.789Z,18.53
2023-01-28T19:45:15.096Z,17.47
2023-01-28T19:47:52.664Z,13.63
2023-01-28T19:50:33.459Z,14.00
2023-01-28T19:53:10.936Z,15.70
2023-01-28T19:55:52.095Z,13.13
2023-01-28T19:58:33.286Z,16.57
2023-01-28T20:01:13.059Z,13.13
2023-01-28T20:03:55.456Z,11.97
2023-01-28T20:06:37.629Z,16.67
2023-01-28T20:09:21.795Z,14.50
2023-01-28T20:12:01.516Z,16.90
2023-01-28T20:14:40.329Z,13.73
2023-01-28T20:17:19.287Z,10.43
2023-01-28T20:19:58.842Z,12.50
2023-01-28T20:22:44.215Z,12.00
2023-01-28T20:25:30.473Z,10.97
2023-01-28T20:28:14.211Z,11.03
2023-01-28T20:30:59.379Z,8.88
2023-01-28T20:33:52.744Z,9.27
2023-01-28T20:36:31.865Z,7.80
2023-01-28T20:39:13.570Z,7.77
2023-01-28T20:41:53.538Z,9.02
2023-01-28T20:44:35.350Z,8.03
2023-01-28T20:47:15.833Z,6.37
2023-01-28T20:49:58.693Z,8.10
2023-01-28T20:52:42.219Z,8.23
2023-01-28T20:55:30.382Z,9.60
2023-01-28T20:58:10.911Z,7.53
